createdAt,value
2022-08-10T00:00:13.941Z,15.16
2022-08-10T00:02:40.964Z,15.12
2022-08-10T00:05:08.189Z,15.09
2022-08-10T00:07:35.255Z,15.08
2022-08-10T00:10:02.306Z,15.06
2022-08-10T00:12:30.963Z,15.09
2022-08-10T00:15:52.282Z,15.02
2022-08-10T00:18:07.665Z,15.01
2022-08-10T00:20:34.531Z,14.93
2022-08-10T00:23:01.339Z,14.86
2022-08-10T00:25:28.248Z,14.85
2022-08-10T00:28:02.596Z,14.83
2022-08-10T00:30:30.827Z,14.79
2022-08-10T00:32:57.639Z,14.79
2022-08-10T00:35:24.436Z,14.75
2022-08-10T00:37:57.580Z,14.67
2022-08-10T00:40:37.316Z,14.68
2022-08-10T00:43:05.955Z,14.67
2022-08-10T00:45:33.384Z,14.64
2022-08-10T00:48:00.315Z,14.65
2022-08-10T00:50:27.718Z,14.54
2022-08-10T00:52:55.075Z,14.58
2022-08-10T00:55:21.971Z,14.62
2022-08-10T00:57:55.519Z,14.56
2022-08-10T01:00:23.933Z,14.52
2022-08-10T01:02:50.987Z,14.53
2022-08-10T01:05:20.788Z,14.59
2022-08-10T01:08:15.250Z,14.58
2022-08-10T01:12:47.133Z,14.48
2022-08-10T01:14:11.340Z,14.40
2022-08-10T01:16:50.521Z,14.37
2022-08-10T01:19:29.206Z,14.33
2022-08-10T01:22:09.526Z,14.30
2022-08-10T01:25:01.486Z,14.26
2022-08-10T01:27:44.027Z,14.24
2022-08-10T01:30:12.204Z,14.15
2022-08-10T01:32:48.441Z,14.15
2022-08-10T01:35:47.172Z,14.17
2022-08-10T01:38:34.644Z,14.21
2022-08-10T01:41:18.597Z,14.08
2022-08-10T01:43:56.058Z,14.01
2022-08-10T01:46:32.119Z,14.00
2022-08-10T01:49:00.886Z,13.97
2022-08-10T01:51:40.422Z,14.03
2022-08-10T01:54:12.941Z,13.97
2022-08-10T01:56:43.757Z,13.92
2022-08-10T01:59:39.989Z,13.88
2022-08-10T02:02:10.402Z,13.85
2022-08-10T02:04:40.333Z,13.79
2022-08-10T02:07:09.618Z,13.82
2022-08-10T02:09:40.396Z,13.85
2022-08-10T02:12:10.519Z,13.83
2022-08-10T02:14:47.878Z,13.81
2022-08-10T02:17:59.563Z,13.75
2022-08-10T02:20:14.321Z,13.76
2022-08-10T02:22:43.232Z,13.70
2022-08-10T02:25:39.543Z,13.79
2022-08-10T02:27:59.316Z,13.80
2022-08-10T02:30:28.560Z,13.76
2022-08-10T02:32:58.125Z,13.71
2022-08-10T02:35:29.171Z,13.67
2022-08-10T02:38:09.743Z,13.54
2022-08-10T02:45:15.616Z,13.61
2022-08-10T02:45:22.445Z,13.65
2022-08-10T02:46:29.508Z,13.52
2022-08-10T02:49:01.571Z,13.47
2022-08-10T02:52:07.370Z,13.45
2022-08-10T02:54:31.275Z,13.39
2022-08-10T02:57:11.819Z,13.40
2022-08-10T02:59:46.604Z,13.39
2022-08-10T03:02:20.807Z,13.33
2022-08-10T03:04:55.486Z,13.35
2022-08-10T03:07:43.559Z,13.38
2022-08-10T03:10:25.464Z,13.34
2022-08-10T03:12:57.724Z,13.27
2022-08-10T03:15:25.255Z,13.23
2022-08-10T03:17:57.838Z,13.24
2022-08-10T03:20:37.247Z,13.32
2022-08-10T03:23:13.882Z,13.24
2022-08-10T03:25:54.285Z,13.21
2022-08-10T03:28:23.196Z,13.24
2022-08-10T03:30:50.728Z,13.24
2022-08-10T03:33:18.018Z,13.24
2022-08-10T03:36:42.644Z,13.20
2022-08-10T03:38:32.220Z,13.16
2022-08-10T03:41:05.186Z,13.26
2022-08-10T03:43:33.960Z,13.19
2022-08-10T03:46:06.087Z,13.16
2022-08-10T03:48:49.034Z,13.18
2022-08-10T03:51:18.569Z,13.17
2022-08-10T03:54:05.350Z,13.17
2022-08-10T03:56:34.813Z,13.11
2022-08-10T03:59:02.094Z,13.08
2022-08-10T04:02:41.647Z,13.15
2022-08-10T04:04:23.250Z,13.17
2022-08-10T04:06:58.434Z,13.15
2022-08-10T04:09:53.679Z,13.18
2022-08-10T04:12:17.777Z,13.25
2022-08-10T04:14:51.234Z,13.31
2022-08-10T04:17:56.296Z,13.33
2022-08-10T04:20:19.824Z,13.38
2022-08-10T04:22:56.283Z,13.40
2022-08-10T04:25:25.353Z,13.54
2022-08-10T04:27:53.662Z,13.58
2022-08-10T04:30:20.978Z,13.55
2022-08-10T04:32:52.156Z,13.50
2022-08-10T04:35:20.867Z,13.50
2022-08-10T04:37:49.575Z,13.55
2022-08-10T04:40:28.880Z,13.62
2022-08-10T04:43:12.378Z,13.81
2022-08-10T04:45:49.823Z,14.29
2022-08-10T04:48:40.526Z,14.01
2022-08-10T04:51:17.387Z,14.15
2022-08-10T04:54:04.706Z,14.55
2022-08-10T04:56:35.713Z,14.82
2022-08-10T04:59:03.490Z,14.96
2022-08-10T05:02:21.471Z,15.00
2022-08-10T05:04:35.744Z,15.19
2022-08-10T05:07:16.611Z,15.51
2022-08-10T05:10:00.903Z,15.73
2022-08-10T05:12:35.947Z,16.00
2022-08-10T05:15:08.615Z,16.10
2022-08-10T05:17:36.518Z,16.03
2022-08-10T05:20:07.223Z,16.11
2022-08-10T05:22:36.112Z,16.22
2022-08-10T05:25:03.977Z,16.46
2022-08-10T05:27:30.694Z,16.55
2022-08-10T05:30:01.982Z,16.66
2022-08-10T05:32:56.274Z,16.64
2022-08-10T05:35:21.788Z,16.90
2022-08-10T05:38:13.373Z,16.77
2022-08-10T05:40:46.990Z,16.66
2022-08-10T05:43:19.591Z,16.62
2022-08-10T05:46:17.245Z,16.86
2022-08-10T05:48:55.623Z,17.19
2022-08-10T05:51:25.880Z,17.24
2022-08-10T05:54:04.299Z,17.17
2022-08-10T05:56:53.346Z,17.65
2022-08-10T06:00:35.341Z,18.43
2022-08-10T06:02:41.879Z,19.02
2022-08-10T06:05:15.857Z,19.24
2022-08-10T06:07:53.225Z,19.76
2022-08-10T06:10:32.631Z,19.80
2022-08-10T06:13:29.653Z,20.02
2022-08-10T06:16:02.560Z,19.79
2022-08-10T06:18:29.896Z,20.18
2022-08-10T06:20:57.536Z,20.37
2022-08-10T06:23:26.392Z,20.76
2022-08-10T06:26:11.422Z,20.94
2022-08-10T06:28:54.060Z,21.10
2022-08-10T06:31:46.770Z,20.94
2022-08-10T06:34:22.596Z,21.22
2022-08-10T06:36:50.373Z,22.02
2022-08-10T06:39:32.931Z,22.21
2022-08-10T06:42:17.639Z,23.49
2022-08-10T06:44:51.200Z,24.02
2022-08-10T06:47:23.075Z,23.54
2022-08-10T06:49:54.215Z,23.20
2022-08-10T06:52:30.581Z,23.65
2022-08-10T06:55:00.643Z,23.32
2022-08-10T06:57:31.000Z,23.47
2022-08-10T07:00:01.052Z,23.45
2022-08-10T07:02:54.855Z,23.66
2022-08-10T07:05:24.553Z,24.00
2022-08-10T07:07:54.339Z,24.59
2022-08-10T07:10:23.545Z,24.65
2022-08-10T07:12:57.707Z,24.50
2022-08-10T07:15:59.684Z,24.48
2022-08-10T07:18:14.344Z,24.51
2022-08-10T07:20:42.739Z,24.58
2022-08-10T07:23:58.871Z,23.60
2022-08-10T07:26:00.994Z,23.92
2022-08-10T07:28:30.020Z,23.92
2022-08-10T07:30:57.830Z,24.02
2022-08-10T07:33:24.856Z,24.21
2022-08-10T07:35:52.881Z,23.75
2022-08-10T07:38:23.912Z,23.90
2022-08-10T07:40:53.026Z,23.81
2022-08-10T07:43:24.948Z,23.99
2022-08-10T07:45:52.618Z,24.10
2022-08-10T07:48:28.558Z,23.98
2022-08-10T07:50:59.596Z,23.69
2022-08-10T07:53:43.045Z,23.66
2022-08-10T07:56:31.943Z,23.49
2022-08-10T07:59:07.794Z,23.49
2022-08-10T08:01:38.380Z,23.41
2022-08-10T08:04:11.751Z,23.13
2022-08-10T08:06:41.960Z,23.31
2022-08-10T08:09:10.894Z,23.06
2022-08-10T08:11:41.364Z,23.61
2022-08-10T08:14:08.957Z,23.36
2022-08-10T08:16:40.076Z,23.20
2022-08-10T08:19:26.926Z,23.01
2022-08-10T08:24:08.955Z,23.09
2022-08-10T08:24:44.238Z,23.17
2022-08-10T08:27:15.234Z,23.13
2022-08-10T08:29:43.043Z,23.06
2022-08-10T08:32:11.756Z,23.05
2022-08-10T08:34:42.525Z,23.40
2022-08-10T08:37:11.522Z,23.47
2022-08-10T08:39:38.786Z,23.39
2022-08-10T08:42:53.984Z,23.35
2022-08-10T08:45:36.320Z,23.26
2022-08-10T08:48:52.321Z,23.37
2022-08-10T08:52:07.975Z,23.47
2022-08-10T08:54:56.993Z,23.51
2022-08-10T08:57:51.197Z,23.58
2022-08-10T09:00:24.378Z,23.97
2022-08-10T09:03:19.012Z,23.81
2022-08-10T09:06:13.978Z,23.86
2022-08-10T09:09:15.649Z,24.44
2022-08-10T09:12:08.546Z,25.14
2022-08-10T09:14:46.941Z,25.24
2022-08-10T09:17:31.197Z,25.80
2022-08-10T09:20:19.344Z,26.03
2022-08-10T09:22:57.604Z,25.96
2022-08-10T09:25:36.177Z,26.18
2022-08-10T09:28:07.934Z,26.12
2022-08-10T09:31:10.761Z,26.42
2022-08-10T09:36:29.510Z,26.94
2022-08-10T09:37:08.602Z,27.26
2022-08-10T09:40:12.315Z,27.50
2022-08-10T09:43:23.952Z,27.67
2022-08-10T09:46:05.726Z,28.00
2022-08-10T09:48:47.545Z,27.71
2022-08-10T09:54:06.226Z,28.31
2022-08-10T09:57:12.022Z,27.86
2022-08-10T10:00:08.486Z,27.84
2022-08-10T10:03:20.575Z,28.92
2022-08-10T10:06:03.593Z,29.37
2022-08-10T10:08:43.257Z,29.35
2022-08-10T10:11:28.956Z,29.59
2022-08-10T10:14:17.750Z,29.57
2022-08-10T10:17:07.903Z,30.44
2022-08-10T10:19:58.925Z,30.78
2022-08-10T10:22:52.817Z,30.78
2022-08-10T10:25:50.909Z,30.74
2022-08-10T10:28:59.749Z,30.59
2022-08-10T10:31:27.410Z,30.92
2022-08-10T10:34:14.648Z,30.78
2022-08-10T10:36:43.476Z,31.63
2022-08-10T10:39:13.878Z,30.47
2022-08-10T10:42:03.389Z,30.32
2022-08-10T10:44:42.507Z,31.15
2022-08-10T10:47:50.896Z,30.38
2022-08-10T10:50:18.186Z,31.38
2022-08-10T10:53:08.427Z,31.67
2022-08-10T10:56:13.172Z,31.45
2022-08-10T10:58:43.177Z,31.44
2022-08-10T11:01:42.409Z,31.75
2022-08-10T11:04:24.359Z,31.93
2022-08-10T11:07:33.671Z,32.12
2022-08-10T11:10:47.441Z,31.92
2022-08-10T11:14:26.143Z,31.73
2022-08-10T11:16:35.855Z,30.04
2022-08-10T11:19:27.037Z,30.35
2022-08-10T11:22:36.777Z,30.36
2022-08-10T11:25:32.517Z,30.15
2022-08-10T11:28:18.020Z,31.18
2022-08-10T11:30:56.764Z,29.56
2022-08-10T11:34:11.418Z,29.90
2022-08-10T11:36:53.323Z,29.70
2022-08-10T11:39:49.734Z,31.40
2022-08-10T11:42:33.282Z,31.07
2022-08-10T11:45:07.254Z,31.37
2022-08-10T11:47:54.430Z,31.97
2022-08-10T11:50:29.153Z,31.20
2022-08-10T11:53:38.990Z,31.60
2022-08-10T11:56:11.136Z,31.35
2022-08-10T11:59:01.628Z,32.15
2022-08-10T12:01:45.646Z,31.43
2022-08-10T12:04:14.882Z,31.74
2022-08-10T12:06:55.147Z,30.56
2022-08-10T12:10:09.738Z,30.71
2022-08-10T12:12:12.875Z,31.83
2022-08-10T12:14:53.394Z,31.34
2022-08-10T12:17:35.483Z,31.96
2022-08-10T12:20:22.834Z,32.12
2022-08-10T12:23:00.383Z,32.02
2022-08-10T12:25:55.481Z,32.41
2022-08-10T12:28:49.444Z,32.64
2022-08-10T12:31:35.063Z,32.11
2022-08-10T12:34:07.780Z,32.07
2022-08-10T12:36:44.909Z,31.79
2022-08-10T12:39:28.216Z,32.16
2022-08-10T12:42:10.396Z,32.26
2022-08-10T12:44:57.717Z,32.19
2022-08-10T12:47:36.739Z,32.57
2022-08-10T12:50:33.254Z,32.35
2022-08-10T12:53:10.530Z,32.75
2022-08-10T12:55:42.100Z,32.31
2022-08-10T12:58:57.741Z,32.45
2022-08-10T13:01:21.380Z,32.30
2022-08-10T13:04:20.932Z,32.14
2022-08-10T13:06:46.301Z,32.58
2022-08-10T13:09:14.309Z,32.94
2022-08-10T13:12:35.040Z,32.72
2022-08-10T13:14:58.170Z,32.47
2022-08-10T13:17:38.928Z,32.46
2022-08-10T13:20:15.006Z,32.01
2022-08-10T13:22:42.961Z,31.79
2022-08-10T13:25:11.052Z,32.01
2022-08-10T13:28:00.762Z,31.93
2022-08-10T13:30:35.669Z,31.70
2022-08-10T13:33:07.347Z,32.19
2022-08-10T13:35:36.156Z,31.61
2022-08-10T13:38:06.093Z,32.04
2022-08-10T13:40:33.931Z,32.05
2022-08-10T13:43:05.647Z,31.66
2022-08-10T13:45:33.682Z,31.40
2022-08-10T13:48:14.233Z,31.59
2022-08-10T13:50:42.153Z,31.82
2022-08-10T13:53:15.224Z,31.97
2022-08-10T13:55:57.248Z,31.15
2022-08-10T13:58:37.059Z,31.87
2022-08-10T14:01:15.671Z,31.93
2022-08-10T14:03:44.349Z,31.74
2022-08-10T14:06:13.945Z,31.95
2022-08-10T14:08:48.604Z,32.20
2022-08-10T14:11:18.159Z,31.96
2022-08-10T14:13:55.656Z,31.88
2022-08-10T14:16:23.608Z,32.30
2022-08-10T14:18:54.223Z,32.13
2022-08-10T14:21:21.836Z,32.07
2022-08-10T14:23:53.257Z,32.07
2022-08-10T14:26:30.526Z,31.90
2022-08-10T14:29:08.242Z,31.25
2022-08-10T14:31:37.237Z,31.52
2022-08-10T14:34:08.996Z,31.58
2022-08-10T14:36:55.714Z,31.27
2022-08-10T14:39:29.077Z,31.06
2022-08-10T14:42:03.105Z,31.63
2022-08-10T14:44:45.762Z,31.23
2022-08-10T14:47:52.153Z,31.50
2022-08-10T14:50:05.098Z,31.20
2022-08-10T14:52:44.448Z,31.19
2022-08-10T14:55:19.837Z,31.46
2022-08-10T14:58:19.481Z,31.09
2022-08-10T15:00:42.786Z,31.16
2022-08-10T15:04:02.364Z,30.92
2022-08-10T15:06:07.780Z,31.75
2022-08-10T15:08:47.116Z,31.35
2022-08-10T15:12:14.080Z,31.10
2022-08-10T15:14:41.418Z,30.80
2022-08-10T15:16:57.750Z,31.18
2022-08-10T15:20:02.042Z,30.78
2022-08-10T15:22:37.208Z,31.08
2022-08-10T15:25:18.364Z,31.00
2022-08-10T15:27:55.017Z,30.69
2022-08-10T15:30:31.634Z,30.76
2022-08-10T15:34:02.653Z,30.48
2022-08-10T15:36:34.030Z,30.44
2022-08-10T15:39:11.960Z,30.99
2022-08-10T15:42:00.331Z,30.61
2022-08-10T15:44:43.224Z,30.30
2022-08-10T15:47:28.423Z,30.49
2022-08-10T15:50:21.875Z,30.51
2022-08-10T15:53:02.572Z,29.97
2022-08-10T15:55:51.817Z,29.71
2022-08-10T15:58:49.911Z,29.76
2022-08-10T16:02:13.816Z,29.39
2022-08-10T16:04:31.724Z,30.02
2022-08-10T16:07:06.903Z,29.82
2022-08-10T16:10:23.041Z,29.45
2022-08-10T16:12:37.202Z,29.42
2022-08-10T16:15:10.835Z,29.18
2022-08-10T16:18:11.640Z,29.11
2022-08-10T16:21:02.887Z,29.01
2022-08-10T16:23:38.696Z,28.68
2022-08-10T16:26:14.998Z,28.49
2022-08-10T16:28:55.341Z,28.40
2022-08-10T16:31:27.603Z,28.06
2022-08-10T16:33:58.573Z,27.68
2022-08-10T16:36:41.901Z,27.40
2022-08-10T16:39:18.164Z,27.17
2022-08-10T16:42:04.613Z,26.80
2022-08-10T16:44:52.291Z,26.64
2022-08-10T16:47:27.319Z,26.46
2022-08-10T16:49:58.233Z,26.26
2022-08-10T16:52:28.526Z,26.21
2022-08-10T16:55:17.018Z,26.09
2022-08-10T16:57:53.359Z,25.98
2022-08-10T17:00:22.547Z,25.79
2022-08-10T17:02:55.245Z,25.64
2022-08-10T17:06:05.871Z,25.58
2022-08-10T17:08:14.464Z,25.57
2022-08-10T17:10:42.913Z,25.59
2022-08-10T17:13:12.030Z,25.38
2022-08-10T17:15:47.226Z,25.42
2022-08-10T17:18:27.510Z,25.28
2022-08-10T17:20:59.844Z,25.16
2022-08-10T17:23:39.866Z,25.03
2022-08-10T17:26:14.903Z,24.86
2022-08-10T17:28:54.033Z,24.78
2022-08-10T17:31:54.769Z,24.61
2022-08-10T17:34:28.656Z,24.43
2022-08-10T17:37:02.267Z,24.45
2022-08-10T17:39:33.804Z,24.27
2022-08-10T17:42:01.640Z,24.34
2022-08-10T17:44:29.701Z,24.19
2022-08-10T17:46:57.771Z,24.02
2022-08-10T17:49:26.250Z,23.98
2022-08-10T17:51:56.563Z,23.95
2022-08-10T17:54:36.627Z,23.91
2022-08-10T17:57:14.549Z,23.77
2022-08-10T17:59:42.757Z,23.86
2022-08-10T18:02:13.665Z,23.71
2022-08-10T18:04:45.953Z,23.62
2022-08-10T18:07:15.090Z,23.40
2022-08-10T18:09:54.922Z,23.39
2022-08-10T18:12:38.654Z,23.39
2022-08-10T18:15:13.796Z,23.39
2022-08-10T18:17:46.019Z,23.31
2022-08-10T18:20:15.890Z,23.05
2022-08-10T18:22:49.826Z,23.07
2022-08-10T18:25:20.329Z,22.96
2022-08-10T18:28:08.494Z,23.05
2022-08-10T18:30:45.703Z,22.92
2022-08-10T18:33:16.018Z,22.92
2022-08-10T18:35:45.533Z,22.90
2022-08-10T18:38:14.901Z,22.83
2022-08-10T18:40:45.043Z,22.68
2022-08-10T18:44:07.517Z,22.76
2022-08-10T18:46:06.810Z,22.68
2022-08-10T18:48:40.971Z,22.55
2022-08-10T18:51:09.713Z,22.42
2022-08-10T18:53:47.831Z,22.42
2022-08-10T18:56:20.719Z,22.24
2022-08-10T18:59:20.338Z,22.18
2022-08-10T19:02:05.878Z,22.23
2022-08-10T19:05:30.849Z,22.32
2022-08-10T19:08:31.217Z,22.19
2022-08-10T19:11:18.915Z,22.14
2022-08-10T19:13:50.928Z,21.96
2022-08-10T19:16:51.951Z,21.98
2022-08-10T19:19:37.291Z,21.88
2022-08-10T19:22:14.697Z,21.80
2022-08-10T19:25:08.042Z,21.79
2022-08-10T19:27:39.968Z,21.78
2022-08-10T19:30:14.420Z,21.74
2022-08-10T19:33:14.392Z,21.62
2022-08-10T19:36:02.940Z,21.64
2022-08-10T19:38:49.500Z,21.65
2022-08-10T19:41:44.287Z,21.53
2022-08-10T19:44:35.692Z,21.42
2022-08-10T19:47:25.225Z,21.27
2022-08-10T19:50:16.253Z,21.11
2022-08-10T19:52:54.292Z,21.05
2022-08-10T19:55:48.051Z,21.02
2022-08-10T19:58:35.741Z,20.94
2022-08-10T20:01:07.350Z,20.89
2022-08-10T20:03:55.413Z,20.83
2022-08-10T20:06:42.340Z,20.89
2022-08-10T20:09:24.441Z,20.78
2022-08-10T20:12:00.149Z,20.84
2022-08-10T20:14:57.967Z,20.66
2022-08-10T20:17:51.491Z,20.55
2022-08-10T20:20:51.675Z,20.57
2022-08-10T20:23:23.554Z,20.47
2022-08-10T20:26:04.684Z,20.60
2022-08-10T20:29:16.141Z,20.55
2022-08-10T20:32:15.861Z,20.49
2022-08-10T20:34:48.257Z,20.42
2022-08-10T20:38:03.035Z,20.36
2022-08-10T20:40:46.943Z,20.07
2022-08-10T20:43:34.802Z,20.10
2022-08-10T20:46:23.381Z,20.01
2022-08-10T20:49:01.447Z,20.02
2022-08-10T20:51:57.309Z,20.02
2022-08-10T20:54:32.447Z,19.92
2022-08-10T20:57:55.310Z,19.71
2022-08-10T21:00:23.520Z,19.73
2022-08-10T21:03:24.963Z,19.84
2022-08-10T21:06:42.808Z,19.67
2022-08-10T21:09:24.438Z,19.45
2022-08-10T21:12:22.218Z,19.45
2022-08-10T21:15:13.886Z,19.47
2022-08-10T21:17:49.573Z,19.46
2022-08-10T21:20:28.650Z,19.47
2022-08-10T21:22:58.961Z,19.43
2022-08-10T21:26:13.296Z,19.18
2022-08-10T21:28:52.414Z,19.18
2022-08-10T21:31:22.052Z,19.15
2022-08-10T21:34:15.236Z,19.07
2022-08-10T21:36:51.781Z,18.95
2022-08-10T21:39:41.922Z,18.81
2022-08-10T21:43:07.911Z,18.71
2022-08-10T21:46:00.391Z,18.80
2022-08-10T21:49:05.019Z,18.53
2022-08-10T21:52:06.609Z,18.43
2022-08-10T21:55:03.443Z,18.41
2022-08-10T21:58:11.873Z,18.34
2022-08-10T22:01:17.498Z,18.24
2022-08-10T22:04:03.704Z,18.20
2022-08-10T22:06:56.040Z,18.04
2022-08-10T22:09:50.240Z,17.95
2022-08-10T22:12:46.874Z,17.85
2022-08-10T22:16:05.574Z,17.80
2022-08-10T22:18:53.693Z,17.75
2022-08-10T22:22:07.742Z,17.72
2022-08-10T22:25:22.080Z,17.65
2022-08-10T22:28:17.724Z,17.65
2022-08-10T22:31:32.146Z,17.54
2022-08-10T22:34:36.730Z,17.65
2022-08-10T22:37:42.960Z,17.65
2022-08-10T22:40:55.210Z,17.70
2022-08-10T22:43:46.345Z,17.54
2022-08-10T22:46:40.333Z,17.59
2022-08-10T22:49:07.968Z,17.66
2022-08-10T22:52:16.983Z,17.67
2022-08-10T22:55:25.842Z,17.67
2022-08-10T22:58:11.233Z,17.58
2022-08-10T23:00:38.517Z,17.63
2022-08-10T23:03:22.219Z,17.59
2022-08-10T23:06:13.485Z,17.48
2022-08-10T23:09:01.509Z,17.43
2022-08-10T23:11:38.065Z,17.30
2022-08-10T23:14:08.946Z,17.30
2022-08-10T23:17:00.786Z,17.24
2022-08-10T23:20:15.433Z,17.11
2022-08-10T23:22:50.038Z,17.11
2022-08-10T23:25:21.837Z,17.00
2022-08-10T23:28:00.271Z,17.10
2022-08-10T23:30:35.117Z,17.03
2022-08-10T23:33:03.168Z,17.01
2022-08-10T23:36:30.233Z,17.09
2022-08-10T23:38:32.052Z,17.03
2022-08-10T23:41:04.802Z,17.02
2022-08-10T23:44:02.966Z,16.98
2022-08-10T23:46:28.839Z,16.88
2022-08-10T23:48:59.124Z,16.72
2022-08-10T23:51:56.203Z,16.71
2022-08-10T23:54:25.781Z,16.62
2022-08-10T23:57:01.114Z,16.63
2022-08-10T23:59:32.209Z,16.58
